sensor_id;sensor_type;location;lat;lon;timestamp;P1;durP1;ratioP1;P2;durP2;ratioP2
23578;SDS011;11967;50.852;4.400;2024-01-15T00:02:18;53.65;;;24.00;;
23578;SDS011;11967;50.852;4.400;2024-01-15T00:04:43;52.38;;;23.90;;
23578;SDS011;11967;50.852;4.400;2024-01-15T00:07:09;47.83;;;21.90;;
23578;SDS011;11967;50.852;4.400;2024-01-15T00:09:35;48.38;;;22.50;;
23578;SDS011;11967;50.852;4.400;2024-01-15T00:12:01;45.97;;;21.20;;
23578;SDS011;11967;50.852;4.400;2024-01-15T00:14:27;46.13;;;22.05;;
23578;SDS011;11967;50.852;4.400;2024-01-15T00:16:53;48.78;;;21.65;;
23578;SDS011;11967;50.852;4.400;2024-01-15T00:19:20;44.03;;;20.23;;
23578;SDS011;11967;50.852;4.400;2024-01-15T00:21:46;41.63;;;19.48;;
23578;SDS011;11967;50.852;4.400;2024-01-15T00:24:12;42.80;;;18.48;;
23578;SDS011;11967;50.852;4.400;2024-01-15T00:26:38;41.05;;;18.42;;
23578;SDS011;11967;50.852;4.400;2024-01-15T00:29:04;37.63;;;17.05;;
23578;SDS011;11967;50.852;4.400;2024-01-15T00:31:32;38.67;;;18.67;;
23578;SDS011;11967;50.852;4.400;2024-01-15T00:33:58;42.78;;;18.75;;
23578;SDS011;11967;50.852;4.400;2024-01-15T00:36:24;40.47;;;18.10;;
23578;SDS011;11967;50.852;4.400;2024-01-15T00:38:50;38.47;;;17.90;;
23578;SDS011;11967;50.852;4.400;2024-01-15T00:41:16;34.28;;;16.77;;
23578;SDS011;11967;50.852;4.400;2024-01-15T00:43:42;34.70;;;16.98;;
23578;SDS011;11967;50.852;4.400;2024-01-15T00:46:08;35.55;;;17.08;;
23578;SDS011;11967;50.852;4.400;2024-01-15T00:48:33;39.42;;;16.90;;
23578;SDS011;11967;50.852;4.400;2024-01-15T00:50:59;34.65;;;15.73;;
23578;SDS011;11967;50.852;4.400;2024-01-15T00:53:25;33.45;;;15.82;;
23578;SDS011;11967;50.852;4.400;2024-01-15T00:55:50;29.73;;;15.05;;
23578;SDS011;11967;50.852;4.400;2024-01-15T00:58:16;28.25;;;14.85;;
23578;SDS011;11967;50.852;4.400;2024-01-15T01:00:42;29.50;;;14.05;;
23578;SDS011;11967;50.852;4.400;2024-01-15T01:03:08;30.73;;;14.60;;
23578;SDS011;11967;50.852;4.400;2024-01-15T01:05:34;26.98;;;13.55;;
23578;SDS011;11967;50.852;4.400;2024-01-15T01:08:00;26.85;;;13.55;;
23578;SDS011;11967;50.852;4.400;2024-01-15T01:10:26;25.15;;;13.02;;
23578;SDS011;11967;50.852;4.400;2024-01-15T01:12:52;23.50;;;12.10;;
23578;SDS011;11967;50.852;4.400;2024-01-15T01:15:17;19.73;;;11.18;;
23578;SDS011;11967;50.852;4.400;2024-01-15T01:17:43;19.80;;;10.80;;
23578;SDS011;11967;50.852;4.400;2024-01-15T01:20:10;22.83;;;10.63;;
23578;SDS011;11967;50.852;4.400;2024-01-15T01:22:35;20.00;;;10.25;;
23578;SDS011;11967;50.852;4.400;2024-01-15T01:25:01;20.45;;;10.13;;
23578;SDS011;11967;50.852;4.400;2024-01-15T01:27:27;17.60;;;9.20;;
23578;SDS011;11967;50.852;4.400;2024-01-15T01:29:53;15.98;;;9.07;;
23578;SDS011;11967;50.852;4.400;2024-01-15T01:32:18;14.57;;;8.45;;
23578;SDS011;11967;50.852;4.400;2024-01-15T01:34:44;16.85;;;8.68;;
23578;SDS011;11967;50.852;4.400;2024-01-15T01:37:10;14.43;;;7.90;;
23578;SDS011;11967;50.852;4.400;2024-01-15T01:39:39;10.05;;;6.72;;
23578;SDS011;11967;50.852;4.400;2024-01-15T01:42:05;13.70;;;7.75;;
23578;SDS011;11967;50.852;4.400;2024-01-15T01:44:31;13.57;;;7.40;;
23578;SDS011;11967;50.852;4.400;2024-01-15T01:46:57;14.30;;;8.00;;
23578;SDS011;11967;50.852;4.400;2024-01-15T01:49:24;12.90;;;7.88;;
23578;SDS011;11967;50.852;4.400;2024-01-15T01:51:51;14.82;;;7.75;;
23578;SDS011;11967;50.852;4.400;2024-01-15T01:54:17;12.98;;;7.30;;
23578;SDS011;11967;50.852;4.400;2024-01-15T01:56:44;12.43;;;7.18;;
23578;SDS011;11967;50.852;4.400;2024-01-15T01:59:12;13.02;;;7.00;;
23578;SDS011;11967;50.852;4.400;2024-01-15T02:01:38;12.65;;;6.30;;
23578;SDS011;11967;50.852;4.400;2024-01-15T02:04:05;12.27;;;6.18;;
23578;SDS011;11967;50.852;4.400;2024-01-15T02:06:31;12.80;;;6.18;;
23578;SDS011;11967;50.852;4.400;2024-01-15T02:08:56;10.63;;;5.53;;
23578;SDS011;11967;50.852;4.400;2024-01-15T02:11:22;11.43;;;5.78;;
23578;SDS011;11967;50.852;4.400;2024-01-15T02:13:48;13.27;;;5.72;;
23578;SDS011;11967;50.852;4.400;2024-01-15T02:16:14;8.68;;;5.75;;
23578;SDS011;11967;50.852;4.400;2024-01-15T02:18:43;7.93;;;5.25;;
23578;SDS011;11967;50.852;4.400;2024-01-15T02:21:09;8.68;;;4.50;;
23578;SDS011;11967;50.852;4.400;2024-01-15T02:23:36;9.75;;;5.00;;
23578;SDS011;11967;50.852;4.400;2024-01-15T02:26:02;9.57;;;4.80;;
23578;SDS011;11967;50.852;4.400;2024-01-15T02:28:29;9.57;;;4.40;;
23578;SDS011;11967;50.852;4.400;2024-01-15T02:30:55;9.00;;;4.63;;
23578;SDS011;11967;50.852;4.400;2024-01-15T02:33:20;11.30;;;4.47;;
23578;SDS011;11967;50.852;4.400;2024-01-15T02:35:46;9.65;;;4.60;;
23578;SDS011;11967;50.852;4.400;2024-01-15T02:38:15;8.95;;;4.60;;
23578;SDS011;11967;50.852;4.400;2024-01-15T02:40:41;10.88;;;4.85;;
23578;SDS011;11967;50.852;4.400;2024-01-15T02:43:08;9.82;;;4.65;;
23578;SDS011;11967;50.852;4.400;2024-01-15T02:45:33;8.55;;;5.18;;
23578;SDS011;11967;50.852;4.400;2024-01-15T02:47:59;11.80;;;5.40;;
23578;SDS011;11967;50.852;4.400;2024-01-15T02:50:25;10.15;;;5.50;;
23578;SDS011;11967;50.852;4.400;2024-01-15T02:52:50;12.63;;;6.15;;
23578;SDS011;11967;50.852;4.400;2024-01-15T02:55:16;13.63;;;6.65;;
23578;SDS011;11967;50.852;4.400;2024-01-15T02:57:42;14.48;;;7.70;;
23578;SDS011;11967;50.852;4.400;2024-01-15T03:00:07;14.43;;;7.45;;
23578;SDS011;11967;50.852;4.400;2024-01-15T03:02:36;14.10;;;7.40;;
23578;SDS011;11967;50.852;4.400;2024-01-15T03:05:04;18.45;;;8.23;;
23578;SDS011;11967;50.852;4.400;2024-01-15T03:07:33;16.23;;;9.20;;
23578;SDS011;11967;50.852;4.400;2024-01-15T03:09:59;20.90;;;10.40;;
23578;SDS011;11967;50.852;4.400;2024-01-15T03:12:24;19.17;;;10.32;;
23578;SDS011;11967;50.852;4.400;2024-01-15T03:14:50;19.42;;;10.77;;
23578;SDS011;11967;50.852;4.400;2024-01-15T03:17:16;20.35;;;10.50;;
23578;SDS011;11967;50.852;4.400;2024-01-15T03:19:41;18.77;;;10.93;;
23578;SDS011;11967;50.852;4.400;2024-01-15T03:22:07;21.13;;;11.32;;
23578;SDS011;11967;50.852;4.400;2024-01-15T03:24:34;23.42;;;12.38;;
23578;SDS011;11967;50.852;4.400;2024-01-15T03:27:00;21.13;;;12.20;;
23578;SDS011;11967;50.852;4.400;2024-01-15T03:29:26;21.98;;;11.15;;
23578;SDS011;11967;50.852;4.400;2024-01-15T03:31:51;23.73;;;11.50;;
23578;SDS011;11967;50.852;4.400;2024-01-15T03:34:17;21.27;;;12.05;;
23578;SDS011;11967;50.852;4.400;2024-01-15T03:36:43;22.20;;;11.82;;
23578;SDS011;11967;50.852;4.400;2024-01-15T03:39:09;22.15;;;11.73;;
23578;SDS011;11967;50.852;4.400;2024-01-15T03:41:35;26.27;;;12.73;;
23578;SDS011;11967;50.852;4.400;2024-01-15T03:44:00;23.13;;;12.38;;
23578;SDS011;11967;50.852;4.400;2024-01-15T03:46:26;26.23;;;12.85;;
23578;SDS011;11967;50.852;4.400;2024-01-15T03:48:52;27.17;;;14.25;;
23578;SDS011;11967;50.852;4.400;2024-01-15T03:51:17;27.48;;;14.40;;
23578;SDS011;11967;50.852;4.400;2024-01-15T03:53:43;28.80;;;15.57;;
23578;SDS011;11967;50.852;4.400;2024-01-15T03:56:09;29.65;;;15.55;;
23578;SDS011;11967;50.852;4.400;2024-01-15T03:58:35;29.65;;;16.30;;
23578;SDS011;11967;50.852;4.400;2024-01-15T04:01:00;29.00;;;15.45;;
23578;SDS011;11967;50.852;4.400;2024-01-15T04:03:26;28.27;;;15.48;;
23578;SDS011;11967;50.852;4.400;2024-01-15T04:05:51;29.02;;;16.13;;
23578;SDS011;11967;50.852;4.400;2024-01-15T04:08:17;35.38;;;16.92;;
23578;SDS011;11967;50.852;4.400;2024-01-15T04:10:43;30.10;;;16.10;;
23578;SDS011;11967;50.852;4.400;2024-01-15T04:13:08;33.15;;;17.10;;
23578;SDS011;11967;50.852;4.400;2024-01-15T04:15:34;31.02;;;16.50;;
23578;SDS011;11967;50.852;4.400;2024-01-15T04:18:00;34.75;;;18.00;;
23578;SDS011;11967;50.852;4.400;2024-01-15T04:20:26;29.65;;;16.48;;
23578;SDS011;11967;50.852;4.400;2024-01-15T04:22:52;35.22;;;17.45;;
23578;SDS011;11967;50.852;4.400;2024-01-15T04:25:17;32.30;;;17.08;;
23578;SDS011;11967;50.852;4.400;2024-01-15T04:27:43;31.30;;;16.95;;
23578;SDS011;11967;50.852;4.400;2024-01-15T04:30:08;35.03;;;16.67;;
23578;SDS011;11967;50.852;4.400;2024-01-15T04:32:34;33.00;;;16.92;;
23578;SDS011;11967;50.852;4.400;2024-01-15T04:35:01;36.38;;;16.52;;
23578;SDS011;11967;50.852;4.400;2024-01-15T04:37:26;26.65;;;14.82;;
23578;SDS011;11967;50.852;4.400;2024-01-15T04:39:52;30.65;;;15.85;;
23578;SDS011;11967;50.852;4.400;2024-01-15T04:42:20;31.55;;;16.85;;
23578;SDS011;11967;50.852;4.400;2024-01-15T04:44:46;34.45;;;16.02;;
23578;SDS011;11967;50.852;4.400;2024-01-15T04:47:12;29.13;;;15.43;;
23578;SDS011;11967;50.852;4.400;2024-01-15T04:49:37;31.67;;;15.30;;
23578;SDS011;11967;50.852;4.400;2024-01-15T04:52:03;30.23;;;14.40;;
23578;SDS011;11967;50.852;4.400;2024-01-15T04:54:29;26.00;;;13.30;;
23578;SDS011;11967;50.852;4.400;2024-01-15T04:56:54;26.30;;;13.52;;
23578;SDS011;11967;50.852;4.400;2024-01-15T04:59:20;28.15;;;12.90;;
23578;SDS011;11967;50.852;4.400;2024-01-15T05:01:46;23.60;;;12.15;;
23578;SDS011;11967;50.852;4.400;2024-01-15T05:04:12;25.35;;;13.13;;
23578;SDS011;11967;50.852;4.400;2024-01-15T05:06:38;22.35;;;10.90;;
23578;SDS011;11967;50.852;4.400;2024-01-15T05:09:03;18.85;;;10.07;;
23578;SDS011;11967;50.852;4.400;2024-01-15T05:11:29;19.92;;;9.25;;
23578;SDS011;11967;50.852;4.400;2024-01-15T05:13:55;22.50;;;9.02;;
23578;SDS011;11967;50.852;4.400;2024-01-15T05:16:20;14.98;;;8.05;;
23578;SDS011;11967;50.852;4.400;2024-01-15T05:18:46;15.20;;;7.05;;
23578;SDS011;11967;50.852;4.400;2024-01-15T05:21:11;13.85;;;6.25;;
23578;SDS011;11967;50.852;4.400;2024-01-15T05:23:37;11.45;;;5.63;;
23578;SDS011;11967;50.852;4.400;2024-01-15T05:26:03;11.35;;;5.45;;
23578;SDS011;11967;50.852;4.400;2024-01-15T05:28:29;12.00;;;4.82;;
23578;SDS011;11967;50.852;4.400;2024-01-15T05:30:54;11.73;;;4.53;;
23578;SDS011;11967;50.852;4.400;2024-01-15T05:33:21;13.07;;;4.03;;
23578;SDS011;11967;50.852;4.400;2024-01-15T05:35:47;9.43;;;3.85;;
23578;SDS011;11967;50.852;4.400;2024-01-15T05:38:12;10.75;;;3.80;;
23578;SDS011;11967;50.852;4.400;2024-01-15T05:40:38;5.75;;;2.95;;
23578;SDS011;11967;50.852;4.400;2024-01-15T05:43:04;10.57;;;3.40;;
23578;SDS011;11967;50.852;4.400;2024-01-15T05:45:30;5.22;;;2.72;;
23578;SDS011;11967;50.852;4.400;2024-01-15T05:47:55;10.63;;;3.00;;
23578;SDS011;11967;50.852;4.400;2024-01-15T05:50:21;11.65;;;3.05;;
23578;SDS011;11967;50.852;4.400;2024-01-15T05:52:47;9.43;;;3.63;;
23578;SDS011;11967;50.852;4.400;2024-01-15T05:55:13;9.30;;;2.50;;
23578;SDS011;11967;50.852;4.400;2024-01-15T05:57:38;9.52;;;3.08;;
23578;SDS011;11967;50.852;4.400;2024-01-15T06:00:04;6.72;;;2.63;;
23578;SDS011;11967;50.852;4.400;2024-01-15T06:02:31;9.48;;;2.65;;
23578;SDS011;11967;50.852;4.400;2024-01-15T06:04:56;8.60;;;2.33;;
23578;SDS011;11967;50.852;4.400;2024-01-15T06:07:22;9.70;;;2.47;;
23578;SDS011;11967;50.852;4.400;2024-01-15T06:09:48;9.80;;;2.42;;
23578;SDS011;11967;50.852;4.400;2024-01-15T06:12:13;7.85;;;2.65;;
23578;SDS011;11967;50.852;4.400;2024-01-15T06:14:39;7.75;;;2.25;;
23578;SDS011;11967;50.852;4.400;2024-01-15T06:17:06;10.68;;;2.50;;
23578;SDS011;11967;50.852;4.400;2024-01-15T06:19:32;6.88;;;2.00;;
23578;SDS011;11967;50.852;4.400;2024-01-15T06:21:57;8.80;;;2.00;;
23578;SDS011;11967;50.852;4.400;2024-01-15T06:24:23;6.53;;;1.77;;
23578;SDS011;11967;50.852;4.400;2024-01-15T06:26:48;7.13;;;1.80;;
23578;SDS011;11967;50.852;4.400;2024-01-15T06:29:14;8.55;;;1.90;;
23578;SDS011;11967;50.852;4.400;2024-01-15T06:31:40;9.13;;;1.88;;
23578;SDS011;11967;50.852;4.400;2024-01-15T06:34:05;4.45;;;1.88;;
23578;SDS011;11967;50.852;4.400;2024-01-15T06:36:31;6.55;;;2.05;;
23578;SDS011;11967;50.852;4.400;2024-01-15T06:38:57;7.65;;;2.28;;
23578;SDS011;11967;50.852;4.400;2024-01-15T06:41:22;7.90;;;2.40;;
23578;SDS011;11967;50.852;4.400;2024-01-15T06:43:51;5.43;;;2.33;;
23578;SDS011;11967;50.852;4.400;2024-01-15T06:46:22;10.13;;;2.80;;
23578;SDS011;11967;50.852;4.400;2024-01-15T06:48:48;7.07;;;2.40;;
23578;SDS011;11967;50.852;4.400;2024-01-15T06:51:15;11.48;;;2.90;;
23578;SDS011;11967;50.852;4.400;2024-01-15T06:53:41;8.45;;;2.90;;
23578;SDS011;11967;50.852;4.400;2024-01-15T06:56:07;9.35;;;2.92;;
23578;SDS011;11967;50.852;4.400;2024-01-15T06:58:33;7.20;;;3.25;;
23578;SDS011;11967;50.852;4.400;2024-01-15T07:00:59;10.50;;;3.00;;
23578;SDS011;11967;50.852;4.400;2024-01-15T07:03:24;8.43;;;3.00;;
23578;SDS011;11967;50.852;4.400;2024-01-15T07:05:50;7.90;;;3.47;;
23578;SDS011;11967;50.852;4.400;2024-01-15T07:08:16;12.93;;;3.50;;
23578;SDS011;11967;50.852;4.400;2024-01-15T07:10:41;9.32;;;3.63;;
23578;SDS011;11967;50.852;4.400;2024-01-15T07:13:07;9.70;;;3.78;;
23578;SDS011;11967;50.852;4.400;2024-01-15T07:15:33;10.77;;;3.95;;
23578;SDS011;11967;50.852;4.400;2024-01-15T07:17:59;9.05;;;3.70;;
23578;SDS011;11967;50.852;4.400;2024-01-15T07:20:24;9.75;;;3.42;;
23578;SDS011;11967;50.852;4.400;2024-01-15T07:22:50;13.05;;;3.90;;
23578;SDS011;11967;50.852;4.400;2024-01-15T07:25:16;7.32;;;3.55;;
23578;SDS011;11967;50.852;4.400;2024-01-15T07:27:42;7.25;;;3.47;;
23578;SDS011;11967;50.852;4.400;2024-01-15T07:30:11;9.60;;;3.40;;
23578;SDS011;11967;50.852;4.400;2024-01-15T07:32:38;9.23;;;3.75;;
23578;SDS011;11967;50.852;4.400;2024-01-15T07:35:03;11.25;;;3.80;;
23578;SDS011;11967;50.852;4.400;2024-01-15T07:37:30;14.90;;;5.05;;
23578;SDS011;11967;50.852;4.400;2024-01-15T07:39:55;8.32;;;4.13;;
23578;SDS011;11967;50.852;4.400;2024-01-15T07:42:21;14.00;;;4.78;;
23578;SDS011;11967;50.852;4.400;2024-01-15T07:44:47;10.77;;;4.20;;
23578;SDS011;11967;50.852;4.400;2024-01-15T07:47:12;9.40;;;4.45;;
23578;SDS011;11967;50.852;4.400;2024-01-15T07:49:38;11.43;;;4.88;;
23578;SDS011;11967;50.852;4.400;2024-01-15T07:52:04;10.90;;;4.53;;
23578;SDS011;11967;50.852;4.400;2024-01-15T07:54:31;11.13;;;4.88;;
23578;SDS011;11967;50.852;4.400;2024-01-15T07:56:59;12.73;;;5.70;;
23578;SDS011;11967;50.852;4.400;2024-01-15T07:59:26;16.30;;;5.80;;
23578;SDS011;11967;50.852;4.400;2024-01-15T08:01:52;12.18;;;5.43;;
23578;SDS011;11967;50.852;4.400;2024-01-15T08:04:18;11.52;;;5.80;;
23578;SDS011;11967;50.852;4.400;2024-01-15T08:06:46;14.93;;;6.55;;
23578;SDS011;11967;50.852;4.400;2024-01-15T08:09:12;19.45;;;6.40;;
23578;SDS011;11967;50.852;4.400;2024-01-15T08:11:41;15.20;;;6.22;;
23578;SDS011;11967;50.852;4.400;2024-01-15T08:14:08;15.48;;;6.55;;
23578;SDS011;11967;50.852;4.400;2024-01-15T08:16:34;17.20;;;6.10;;
23578;SDS011;11967;50.852;4.400;2024-01-15T08:19:01;12.25;;;6.00;;
23578;SDS011;11967;50.852;4.400;2024-01-15T08:21:26;15.48;;;6.03;;
23578;SDS011;11967;50.852;4.400;2024-01-15T08:23:56;18.15;;;5.78;;
23578;SDS011;11967;50.852;4.400;2024-01-15T08:26:23;14.18;;;5.35;;
23578;SDS011;11967;50.852;4.400;2024-01-15T08:28:49;15.00;;;5.57;;
23578;SDS011;11967;50.852;4.400;2024-01-15T08:31:14;10.52;;;4.57;;
23578;SDS011;11967;50.852;4.400;2024-01-15T08:33:40;12.63;;;4.57;;
23578;SDS011;11967;50.852;4.400;2024-01-15T08:36:06;11.85;;;4.40;;
23578;SDS011;11967;50.852;4.400;2024-01-15T08:38:32;12.40;;;4.13;;
23578;SDS011;11967;50.852;4.400;2024-01-15T08:40:57;11.90;;;4.15;;
23578;SDS011;11967;50.852;4.400;2024-01-15T08:43:25;13.82;;;4.28;;
23578;SDS011;11967;50.852;4.400;2024-01-15T08:45:51;11.52;;;3.85;;
23578;SDS011;11967;50.852;4.400;2024-01-15T08:48:17;14.52;;;3.85;;
23578;SDS011;11967;50.852;4.400;2024-01-15T08:50:43;14.15;;;3.67;;
23578;SDS011;11967;50.852;4.400;2024-01-15T08:53:12;9.38;;;3.03;;
23578;SDS011;11967;50.852;4.400;2024-01-15T08:55:37;14.05;;;3.17;;
23578;SDS011;11967;50.852;4.400;2024-01-15T08:58:03;12.43;;;3.45;;
23578;SDS011;11967;50.852;4.400;2024-01-15T09:00:29;11.00;;;2.90;;
23578;SDS011;11967;50.852;4.400;2024-01-15T09:02:55;12.68;;;3.22;;
23578;SDS011;11967;50.852;4.400;2024-01-15T09:05:21;8.65;;;2.80;;
23578;SDS011;11967;50.852;4.400;2024-01-15T09:07:47;12.85;;;3.22;;
23578;SDS011;11967;50.852;4.400;2024-01-15T09:10:13;12.68;;;3.20;;
23578;SDS011;11967;50.852;4.400;2024-01-15T09:12:39;15.02;;;3.00;;
23578;SDS011;11967;50.852;4.400;2024-01-15T09:15:05;10.02;;;2.92;;
23578;SDS011;11967;50.852;4.400;2024-01-15T09:17:34;16.38;;;3.50;;
23578;SDS011;11967;50.852;4.400;2024-01-15T09:19:59;12.70;;;2.80;;
23578;SDS011;11967;50.852;4.400;2024-01-15T09:22:25;12.93;;;3.10;;
23578;SDS011;11967;50.852;4.400;2024-01-15T09:24:51;12.13;;;2.85;;
23578;SDS011;11967;50.852;4.400;2024-01-15T09:27:17;13.35;;;2.90;;
23578;SDS011;11967;50.852;4.400;2024-01-15T09:29:43;18.55;;;3.97;;
23578;SDS011;11967;50.852;4.400;2024-01-15T09:32:10;16.83;;;3.28;;
23578;SDS011;11967;50.852;4.400;2024-01-15T09:34:37;11.52;;;2.35;;
23578;SDS011;11967;50.852;4.400;2024-01-15T09:37:02;15.25;;;3.28;;
23578;SDS011;11967;50.852;4.400;2024-01-15T09:39:29;14.07;;;3.60;;
23578;SDS011;11967;50.852;4.400;2024-01-15T09:41:55;14.90;;;3.50;;
23578;SDS011;11967;50.852;4.400;2024-01-15T09:44:22;13.13;;;2.97;;
23578;SDS011;11967;50.852;4.400;2024-01-15T09:46:48;9.95;;;3.13;;
23578;SDS011;11967;50.852;4.400;2024-01-15T09:49:17;12.95;;;2.85;;
23578;SDS011;11967;50.852;4.400;2024-01-15T09:51:43;12.07;;;2.83;;
23578;SDS011;11967;50.852;4.400;2024-01-15T09:54:10;16.67;;;2.90;;
23578;SDS011;11967;50.852;4.400;2024-01-15T09:56:38;13.55;;;2.70;;
23578;SDS011;11967;50.852;4.400;2024-01-15T09:59:04;9.63;;;2.90;;
23578;SDS011;11967;50.852;4.400;2024-01-15T10:01:34;13.52;;;3.00;;
23578;SDS011;11967;50.852;4.400;2024-01-15T10:04:03;10.52;;;2.95;;
23578;SDS011;11967;50.852;4.400;2024-01-15T10:06:29;10.40;;;2.95;;
23578;SDS011;11967;50.852;4.400;2024-01-15T10:08:56;10.85;;;2.45;;
23578;SDS011;11967;50.852;4.400;2024-01-15T10:11:23;12.30;;;3.13;;
23578;SDS011;11967;50.852;4.400;2024-01-15T10:13:49;10.50;;;2.53;;
23578;SDS011;11967;50.852;4.400;2024-01-15T10:16:18;16.15;;;3.92;;
23578;SDS011;11967;50.852;4.400;2024-01-15T10:18:44;10.23;;;2.72;;
23578;SDS011;11967;50.852;4.400;2024-01-15T10:21:10;11.05;;;2.92;;
23578;SDS011;11967;50.852;4.400;2024-01-15T10:23:36;12.27;;;2.35;;
23578;SDS011;11967;50.852;4.400;2024-01-15T10:26:02;14.50;;;2.58;;
23578;SDS011;11967;50.852;4.400;2024-01-15T10:28:28;12.32;;;2.25;;
23578;SDS011;11967;50.852;4.400;2024-01-15T10:30:57;11.63;;;2.80;;
23578;SDS011;11967;50.852;4.400;2024-01-15T10:33:25;19.40;;;3.17;;
23578;SDS011;11967;50.852;4.400;2024-01-15T10:35:54;8.55;;;2.53;;
23578;SDS011;11967;50.852;4.400;2024-01-15T10:38:23;11.02;;;2.90;;
23578;SDS011;11967;50.852;4.400;2024-01-15T10:43:19;14.77;;;2.75;;
23578;SDS011;11967;50.852;4.400;2024-01-15T10:45:49;15.80;;;3.47;;
23578;SDS011;11967;50.852;4.400;2024-01-15T10:48:16;13.35;;;2.72;;
23578;SDS011;11967;50.852;4.400;2024-01-15T10:50:46;13.80;;;2.80;;
23578;SDS011;11967;50.852;4.400;2024-01-15T10:53:14;15.73;;;2.75;;
23578;SDS011;11967;50.852;4.400;2024-01-15T10:55:41;20.52;;;2.75;;
23578;SDS011;11967;50.852;4.400;2024-01-15T10:58:09;15.23;;;3.60;;
23578;SDS011;11967;50.852;4.400;2024-01-15T11:00:35;11.23;;;2.55;;
23578;SDS011;11967;50.852;4.400;2024-01-15T11:03:03;9.70;;;2.22;;
23578;SDS011;11967;50.852;4.400;2024-01-15T11:05:33;13.55;;;2.30;;
23578;SDS011;11967;50.852;4.400;2024-01-15T11:08:02;12.48;;;2.85;;
23578;SDS011;11967;50.852;4.400;2024-01-15T11:10:44;10.55;;;2.22;;
23578;SDS011;11967;50.852;4.400;2024-01-15T11:16:09;9.10;;;2.80;;
23578;SDS011;11967;50.852;4.400;2024-01-15T11:18:38;11.48;;;2.40;;
23578;SDS011;11967;50.852;4.400;2024-01-15T11:34:49;11.40;;;2.17;;
23578;SDS011;11967;50.852;4.400;2024-01-15T11:37:14;9.73;;;2.17;;
23578;SDS011;11967;50.852;4.400;2024-01-15T11:39:43;8.13;;;1.75;;
23578;SDS011;11967;50.852;4.400;2024-01-15T11:42:09;11.48;;;1.98;;
23578;SDS011;11967;50.852;4.400;2024-01-15T11:44:36;10.88;;;2.10;;
23578;SDS011;11967;50.852;4.400;2024-01-15T11:47:04;3.97;;;1.70;;
23578;SDS011;11967;50.852;4.400;2024-01-15T11:52:02;10.40;;;2.10;;
23578;SDS011;11967;50.852;4.400;2024-01-15T11:54:30;11.80;;;2.33;;
23578;SDS011;11967;50.852;4.400;2024-01-15T11:57:02;7.88;;;2.00;;
23578;SDS011;11967;50.852;4.400;2024-01-15T11:59:34;10.32;;;2.13;;
23578;SDS011;11967;50.852;4.400;2024-01-15T12:02:00;8.98;;;2.20;;
23578;SDS011;11967;50.852;4.400;2024-01-15T12:04:26;7.43;;;1.90;;
23578;SDS011;11967;50.852;4.400;2024-01-15T12:06:52;11.75;;;2.20;;
23578;SDS011;11967;50.852;4.400;2024-01-15T12:09:21;9.40;;;2.00;;
23578;SDS011;11967;50.852;4.400;2024-01-15T12:11:50;8.88;;;2.13;;
23578;SDS011;11967;50.852;4.400;2024-01-15T12:14:24;10.82;;;2.30;;
23578;SDS011;11967;50.852;4.400;2024-01-15T12:16:50;19.08;;;2.45;;
23578;SDS011;11967;50.852;4.400;2024-01-15T12:19:15;8.27;;;2.50;;
23578;SDS011;11967;50.852;4.400;2024-01-15T12:21:41;9.75;;;2.40;;
23578;SDS011;11967;50.852;4.400;2024-01-15T12:24:07;15.98;;;2.88;;
23578;SDS011;11967;50.852;4.400;2024-01-15T12:26:33;12.10;;;2.33;;
23578;SDS011;11967;50.852;4.400;2024-01-15T12:29:05;13.88;;;2.22;;
23578;SDS011;11967;50.852;4.400;2024-01-15T12:31:31;10.60;;;2.20;;
23578;SDS011;11967;50.852;4.400;2024-01-15T12:33:57;14.52;;;2.03;;
23578;SDS011;11967;50.852;4.400;2024-01-15T12:36:23;12.02;;;2.33;;
23578;SDS011;11967;50.852;4.400;2024-01-15T12:38:48;16.60;;;2.55;;
23578;SDS011;11967;50.852;4.400;2024-01-15T12:41:14;7.75;;;1.80;;
23578;SDS011;11967;50.852;4.400;2024-01-15T12:43:40;9.43;;;2.20;;
23578;SDS011;11967;50.852;4.400;2024-01-15T12:46:06;11.98;;;2.58;;
23578;SDS011;11967;50.852;4.400;2024-01-15T12:48:32;11.05;;;2.30;;
23578;SDS011;11967;50.852;4.400;2024-01-15T12:50:58;11.75;;;1.90;;
23578;SDS011;11967;50.852;4.400;2024-01-15T12:53:23;13.70;;;1.95;;
23578;SDS011;11967;50.852;4.400;2024-01-15T12:55:49;19.38;;;2.90;;
23578;SDS011;11967;50.852;4.400;2024-01-15T12:58:15;13.35;;;2.28;;
23578;SDS011;11967;50.852;4.400;2024-01-15T13:00:40;10.10;;;2.10;;
23578;SDS011;11967;50.852;4.400;2024-01-15T13:03:06;18.13;;;2.30;;
23578;SDS011;11967;50.852;4.400;2024-01-15T13:05:32;10.48;;;2.80;;
23578;SDS011;11967;50.852;4.400;2024-01-15T13:08:00;11.02;;;1.92;;
23578;SDS011;11967;50.852;4.400;2024-01-15T13:10:26;11.00;;;2.60;;
23578;SDS011;11967;50.852;4.400;2024-01-15T13:12:55;13.88;;;2.30;;
23578;SDS011;11967;50.852;4.400;2024-01-15T13:15:20;7.50;;;1.80;;
23578;SDS011;11967;50.852;4.400;2024-01-15T13:17:46;11.85;;;2.08;;
23578;SDS011;11967;50.852;4.400;2024-01-15T13:20:11;13.38;;;2.40;;
23578;SDS011;11967;50.852;4.400;2024-01-15T13:22:37;13.98;;;1.92;;
23578;SDS011;11967;50.852;4.400;2024-01-15T13:25:04;8.98;;;2.08;;
23578;SDS011;11967;50.852;4.400;2024-01-15T13:27:32;8.77;;;2.38;;
23578;SDS011;11967;50.852;4.400;2024-01-15T13:30:00;14.23;;;2.17;;
23578;SDS011;11967;50.852;4.400;2024-01-15T13:32:26;11.68;;;2.45;;
23578;SDS011;11967;50.852;4.400;2024-01-15T13:34:54;14.48;;;2.35;;
23578;SDS011;11967;50.852;4.400;2024-01-15T13:37:21;9.48;;;2.28;;
23578;SDS011;11967;50.852;4.400;2024-01-15T13:39:48;11.50;;;2.72;;
23578;SDS011;11967;50.852;4.400;2024-01-15T13:42:14;8.25;;;2.30;;
23578;SDS011;11967;50.852;4.400;2024-01-15T13:44:40;9.25;;;2.20;;
23578;SDS011;11967;50.852;4.400;2024-01-15T13:47:06;15.38;;;2.40;;
23578;SDS011;11967;50.852;4.400;2024-01-15T13:49:32;11.90;;;2.42;;
23578;SDS011;11967;50.852;4.400;2024-01-15T13:51:59;13.20;;;2.90;;
23578;SDS011;11967;50.852;4.400;2024-01-15T13:54:24;9.75;;;2.15;;
23578;SDS011;11967;50.852;4.400;2024-01-15T13:56:50;9.00;;;1.98;;
23578;SDS011;11967;50.852;4.400;2024-01-15T13:59:15;14.63;;;2.72;;
23578;SDS011;11967;50.852;4.400;2024-01-15T14:01:42;10.27;;;2.75;;
23578;SDS011;11967;50.852;4.400;2024-01-15T14:04:07;11.30;;;2.63;;
23578;SDS011;11967;50.852;4.400;2024-01-15T14:06:33;7.13;;;1.92;;
23578;SDS011;11967;50.852;4.400;2024-01-15T14:08:59;5.00;;;2.08;;
23578;SDS011;11967;50.852;4.400;2024-01-15T14:11:24;9.85;;;2.08;;
23578;SDS011;11967;50.852;4.400;2024-01-15T14:13:50;5.70;;;1.90;;
23578;SDS011;11967;50.852;4.400;2024-01-15T14:16:16;6.80;;;2.03;;
23578;SDS011;11967;50.852;4.400;2024-01-15T14:18:41;9.85;;;2.28;;
23578;SDS011;11967;50.852;4.400;2024-01-15T14:21:07;7.40;;;1.95;;
23578;SDS011;11967;50.852;4.400;2024-01-15T14:23:32;9.23;;;2.00;;
23578;SDS011;11967;50.852;4.400;2024-01-15T14:25:58;9.30;;;2.30;;
23578;SDS011;11967;50.852;4.400;2024-01-15T14:28:24;7.63;;;2.63;;
23578;SDS011;11967;50.852;4.400;2024-01-15T14:30:49;12.30;;;2.50;;
23578;SDS011;11967;50.852;4.400;2024-01-15T14:33:16;16.15;;;2.58;;
23578;SDS011;11967;50.852;4.400;2024-01-15T14:35:42;10.40;;;2.20;;
23578;SDS011;11967;50.852;4.400;2024-01-15T14:38:07;10.82;;;2.28;;
23578;SDS011;11967;50.852;4.400;2024-01-15T14:40:33;7.10;;;1.70;;
23578;SDS011;11967;50.852;4.400;2024-01-15T14:43:00;7.28;;;1.73;;
23578;SDS011;11967;50.852;4.400;2024-01-15T14:45:26;8.90;;;1.95;;
23578;SDS011;11967;50.852;4.400;2024-01-15T14:47:52;7.47;;;1.60;;
23578;SDS011;11967;50.852;4.400;2024-01-15T14:50:18;3.55;;;1.52;;
23578;SDS011;11967;50.852;4.400;2024-01-15T14:52:43;5.35;;;2.08;;